createdAt,value
2023-04-22T00:00:09.218Z,7.05
2023-04-22T00:02:37.477Z,5.65
2023-04-22T00:05:06.650Z,7.95
2023-04-22T00:07:34.317Z,7.60
2023-04-22T00:10:01.249Z,5.68
2023-04-22T00:12:28.202Z,6.15
2023-04-22T00:14:55.134Z,6.30
2023-04-22T00:17:22.101Z,5.72
2023-04-22T00:19:49.075Z,5.45
2023-04-22T00:22:16.165Z,10.35
2023-04-22T00:24:43.229Z,5.82
2023-04-22T00:27:10.180Z,7.63
2023-04-22T00:29:37.342Z,6.97
2023-04-22T00:32:04.540Z,6.22
2023-04-22T00:34:31.473Z,6.43
2023-04-22T00:36:58.424Z,7.90
2023-04-22T00:39:25.363Z,7.38
2023-04-22T00:41:52.822Z,10.35
2023-04-22T00:44:19.972Z,7.05
2023-04-22T00:46:47.746Z,8.50
2023-04-22T00:49:16.121Z,9.25
2023-04-22T00:51:43.060Z,8.88
2023-04-22T00:54:10.056Z,8.38
2023-04-22T00:56:39.178Z,10.90
2023-04-22T00:59:06.131Z,10.35
2023-04-22T01:01:33.530Z,9.63
2023-04-22T01:04:01.386Z,12.30
2023-04-22T01:06:32.398Z,9.50
2023-04-22T01:08:59.706Z,10.02
2023-04-22T01:11:26.886Z,11.00
2023-04-22T01:13:54.001Z,12.00
2023-04-22T01:16:22.250Z,11.45
2023-04-22T01:18:49.303Z,13.05
2023-04-22T01:21:17.178Z,10.00
2023-04-22T01:23:44.256Z,13.93
2023-04-22T01:26:11.610Z,14.73
2023-04-22T01:28:38.790Z,11.93
2023-04-22T01:31:05.840Z,15.55
2023-04-22T01:33:33.638Z,13.40
2023-04-22T01:36:00.972Z,17.42
2023-04-22T01:38:28.973Z,12.75
2023-04-22T01:40:56.426Z,16.23
2023-04-22T01:43:23.795Z,14.27
2023-04-22T01:45:50.759Z,21.23
2023-04-22T01:48:17.772Z,15.23
2023-04-22T01:50:45.051Z,14.30
2023-04-22T01:53:11.912Z,14.25
2023-04-22T01:55:39.399Z,15.35
2023-04-22T01:58:06.306Z,18.92
2023-04-22T02:00:33.288Z,17.70
2023-04-22T02:03:00.642Z,15.05
2023-04-22T02:05:28.261Z,14.95
2023-04-22T02:07:55.388Z,14.57
2023-04-22T02:10:22.564Z,18.90
2023-04-22T02:12:49.540Z,19.60
2023-04-22T02:15:16.658Z,17.83
2023-04-22T02:17:43.708Z,14.82
2023-04-22T02:20:14.244Z,20.02
2023-04-22T02:22:43.711Z,18.85
2023-04-22T02:25:12.325Z,19.67
2023-04-22T02:27:39.533Z,17.67
2023-04-22T02:30:07.558Z,16.40
2023-04-22T02:32:36.902Z,19.73
2023-04-22T02:35:05.387Z,14.18
2023-04-22T02:37:32.326Z,19.60
2023-04-22T02:39:59.221Z,18.33
2023-04-22T02:42:26.126Z,22.30
2023-04-22T02:44:52.983Z,22.52
2023-04-22T02:47:20.052Z,19.83
2023-04-22T02:49:46.894Z,19.60
2023-04-22T02:52:13.840Z,19.85
2023-04-22T02:54:40.715Z,22.67
2023-04-22T02:57:07.773Z,18.40
2023-04-22T02:59:36.051Z,20.00
2023-04-22T03:02:05.242Z,21.52
2023-04-22T03:04:33.801Z,22.23
2023-04-22T03:07:00.787Z,21.88
2023-04-22T03:09:27.659Z,23.35
2023-04-22T03:11:56.334Z,21.88
2023-04-22T03:14:23.215Z,23.67
2023-04-22T03:16:50.379Z,19.40
2023-04-22T03:19:17.277Z,15.98
2023-04-22T03:21:44.197Z,19.30
2023-04-22T03:24:11.101Z,22.25
2023-04-22T03:26:38.024Z,24.35
2023-04-22T03:29:04.969Z,25.23
2023-04-22T03:31:31.870Z,27.52
2023-04-22T03:33:58.883Z,24.45
2023-04-22T03:36:27.462Z,23.98
2023-04-22T03:38:54.392Z,32.20
2023-04-22T03:41:21.249Z,37.50
2023-04-22T03:43:48.304Z,43.40
2023-04-22T03:46:16.120Z,36.22
2023-04-22T03:48:43.139Z,30.33
2023-04-22T03:51:10.107Z,26.60
2023-04-22T03:53:37.004Z,23.77
2023-04-22T03:56:04.327Z,22.77
2023-04-22T03:58:31.279Z,27.15
2023-04-22T04:00:58.178Z,22.77
2023-04-22T04:03:26.572Z,23.92
2023-04-22T04:05:54.970Z,22.77
2023-04-22T04:08:22.206Z,20.55
2023-04-22T04:10:49.101Z,21.83
2023-04-22T04:13:15.961Z,19.73
2023-04-22T04:15:43.129Z,19.38
2023-04-22T04:18:11.722Z,27.63
2023-04-22T04:20:38.745Z,21.42
2023-04-22T04:23:05.627Z,19.42
2023-04-22T04:25:37.826Z,19.08
2023-04-22T04:28:11.267Z,17.88
2023-04-22T04:30:38.448Z,19.95
2023-04-22T04:33:07.473Z,20.50
2023-04-22T04:35:36.048Z,18.25
2023-04-22T04:38:03.000Z,20.15
2023-04-22T04:40:30.682Z,22.65
2023-04-22T04:42:57.813Z,22.42
2023-04-22T04:45:25.106Z,17.25
2023-04-22T04:47:55.660Z,20.15
2023-04-22T04:50:23.039Z,20.90
2023-04-22T04:52:50.159Z,19.65
2023-04-22T04:55:18.045Z,18.80
2023-04-22T04:57:45.769Z,16.80
2023-04-22T05:00:16.403Z,19.38
2023-04-22T05:02:43.552Z,17.77
2023-04-22T05:05:10.814Z,20.33
2023-04-22T05:07:37.822Z,18.83
2023-04-22T05:10:05.149Z,17.70
2023-04-22T05:12:32.065Z,13.02
2023-04-22T05:14:59.000Z,18.85
2023-04-22T05:17:26.104Z,15.30
2023-04-22T05:19:53.101Z,16.15
2023-04-22T05:22:20.641Z,17.17
2023-04-22T05:24:47.640Z,16.38
2023-04-22T05:27:14.604Z,15.85
2023-04-22T05:29:42.018Z,16.23
2023-04-22T05:32:09.302Z,17.98
2023-04-22T05:34:36.467Z,14.45
2023-04-22T05:37:04.333Z,18.80
2023-04-22T05:39:31.381Z,13.50
2023-04-22T05:41:58.839Z,16.52
2023-04-22T05:44:25.822Z,11.77
2023-04-22T05:46:52.733Z,16.90
2023-04-22T05:49:19.736Z,13.63
2023-04-22T05:51:46.681Z,14.52
2023-04-22T05:54:13.621Z,15.88
2023-04-22T05:56:40.716Z,10.75
2023-04-22T05:59:07.921Z,18.60
2023-04-22T06:01:38.649Z,14.10
2023-04-22T06:04:06.561Z,11.52
2023-04-22T06:06:33.812Z,15.98
2023-04-22T06:09:00.883Z,14.15
2023-04-22T06:11:28.533Z,16.27
2023-04-22T06:13:55.472Z,10.50
2023-04-22T06:16:23.447Z,10.50
2023-04-22T06:18:50.455Z,12.20
2023-04-22T06:21:17.440Z,9.45
2023-04-22T06:23:44.383Z,6.30
2023-04-22T06:26:11.656Z,5.93
2023-04-22T06:28:38.717Z,4.80
2023-04-22T06:31:05.829Z,3.15
2023-04-22T06:33:32.746Z,3.33
2023-04-22T06:36:00.221Z,6.68
2023-04-22T06:38:27.121Z,3.78
2023-04-22T06:40:54.011Z,5.22
2023-04-22T06:43:21.360Z,4.57
2023-04-22T06:45:48.314Z,3.40
2023-04-22T06:48:15.275Z,4.13
2023-04-22T06:50:42.198Z,4.55
2023-04-22T06:53:10.119Z,5.45
2023-04-22T06:55:37.202Z,4.43
2023-04-22T06:58:04.171Z,7.05
2023-04-22T07:00:31.071Z,4.95
2023-04-22T07:02:58.388Z,4.88
2023-04-22T07:05:25.521Z,6.75
2023-04-22T07:07:52.562Z,6.68
2023-04-22T07:10:19.562Z,3.10
2023-04-22T07:12:46.555Z,5.18
2023-04-22T07:15:13.536Z,6.47
2023-04-22T07:17:40.738Z,10.57
2023-04-22T07:20:08.461Z,3.17
2023-04-22T07:22:35.421Z,6.07
2023-04-22T07:25:02.608Z,4.63
2023-04-22T07:27:29.579Z,4.80
2023-04-22T07:29:56.508Z,4.10
2023-04-22T07:32:23.488Z,3.92
2023-04-22T07:34:50.465Z,6.05
2023-04-22T07:37:17.380Z,6.22
2023-04-22T07:39:44.300Z,4.15
2023-04-22T07:42:11.937Z,5.25
2023-04-22T07:44:39.619Z,3.38
2023-04-22T07:47:08.651Z,3.42
2023-04-22T07:49:35.718Z,2.67
2023-04-22T07:52:02.750Z,2.78
2023-04-22T07:54:29.649Z,3.47
2023-04-22T07:56:58.417Z,2.88
2023-04-22T07:59:25.746Z,4.28
2023-04-22T08:01:52.698Z,5.07
2023-04-22T08:04:24.407Z,4.97
2023-04-22T08:06:51.549Z,4.78
2023-04-22T08:09:18.445Z,4.18
2023-04-22T08:11:45.414Z,4.53
2023-04-22T08:14:12.349Z,3.20
2023-04-22T08:16:40.526Z,3.38
2023-04-22T08:19:07.501Z,3.40
2023-04-22T08:21:37.372Z,4.10
2023-04-22T08:24:04.406Z,3.20
2023-04-22T08:30:19.989Z,5.15
2023-04-22T08:32:47.651Z,4.05
2023-04-22T08:35:14.725Z,3.72
2023-04-22T08:37:42.322Z,2.20
2023-04-22T08:40:09.651Z,5.47
2023-04-22T08:42:37.831Z,4.18
2023-04-22T08:45:05.924Z,4.35
2023-04-22T08:47:35.682Z,3.33
2023-04-22T08:50:04.528Z,2.47
2023-04-22T08:52:31.890Z,2.20
2023-04-22T08:54:59.268Z,2.42
2023-04-22T08:57:26.908Z,2.55
2023-04-22T08:59:55.746Z,2.72
2023-04-22T09:02:24.526Z,2.08
2023-04-22T09:04:56.092Z,3.13
2023-04-22T09:07:28.405Z,2.35
2023-04-22T09:09:56.124Z,2.60
2023-04-22T09:12:24.892Z,2.90
2023-04-22T09:14:53.096Z,3.03
2023-04-22T09:17:33.484Z,3.35
2023-04-22T09:20:06.281Z,2.72
2023-04-22T09:22:45.571Z,3.03
2023-04-22T09:25:20.085Z,2.70
2023-04-22T09:27:51.790Z,3.38
2023-04-22T09:30:40.074Z,2.53
2023-04-22T09:33:07.963Z,7.28
2023-04-22T09:35:40.107Z,4.55
2023-04-22T09:38:09.200Z,2.67
2023-04-22T09:40:37.534Z,4.15
2023-04-22T09:43:07.434Z,4.20
2023-04-22T09:45:41.611Z,3.72
2023-04-22T09:48:17.640Z,4.38
2023-04-22T09:50:46.535Z,3.42
2023-04-22T09:53:16.704Z,2.05
2023-04-22T09:55:55.695Z,3.45
2023-04-22T09:58:27.818Z,2.65
2023-04-22T10:00:58.126Z,1.55
2023-04-22T10:03:25.155Z,2.70
2023-04-22T10:05:52.426Z,3.08
2023-04-22T10:08:19.490Z,3.58
2023-04-22T10:10:46.976Z,3.88
2023-04-22T10:13:14.059Z,3.97
2023-04-22T10:15:51.674Z,3.70
2023-04-22T10:18:28.879Z,2.58
2023-04-22T10:20:57.290Z,4.82
2023-04-22T10:23:25.261Z,2.55
2023-04-22T10:25:55.030Z,1.80
2023-04-22T10:28:23.435Z,3.22
2023-04-22T10:30:52.046Z,3.58
2023-04-22T10:33:21.908Z,2.28
2023-04-22T10:36:10.002Z,3.42
2023-04-22T10:38:42.349Z,2.15
2023-04-22T10:41:16.048Z,4.30
2023-04-22T10:43:48.133Z,2.33
2023-04-22T10:46:34.772Z,2.55
2023-04-22T10:49:11.844Z,1.70
2023-04-22T10:51:50.484Z,2.22
2023-04-22T10:54:32.193Z,2.13
2023-04-22T10:57:13.047Z,5.20
2023-04-22T10:59:54.040Z,4.40
2023-04-22T11:02:22.770Z,2.47
2023-04-22T11:04:50.689Z,2.85
2023-04-22T11:07:26.887Z,2.47
2023-04-22T11:10:04.459Z,1.83
2023-04-22T11:12:39.959Z,3.83
2023-04-22T11:15:11.653Z,1.95
2023-04-22T11:17:40.325Z,2.15
2023-04-22T11:20:08.709Z,2.92
2023-04-22T11:22:36.788Z,2.67
2023-04-22T11:25:05.678Z,5.38
2023-04-22T11:27:33.153Z,2.40
2023-04-22T11:30:09.038Z,4.32
2023-04-22T11:32:37.950Z,4.40
2023-04-22T11:35:10.284Z,2.60
2023-04-22T11:37:47.473Z,2.17
2023-04-22T11:42:56.246Z,2.22
2023-04-22T11:45:23.872Z,2.70
2023-04-22T11:47:52.588Z,3.30
2023-04-22T11:50:29.230Z,4.53
2023-04-22T11:53:23.902Z,3.05
2023-04-22T11:55:52.281Z,2.08
2023-04-22T11:58:25.506Z,3.30
2023-04-22T12:00:53.881Z,4.35
2023-04-22T12:03:29.003Z,3.72
2023-04-22T12:06:01.581Z,4.38
2023-04-22T12:08:42.425Z,1.70
2023-04-22T12:11:11.600Z,3.10
2023-04-22T12:13:38.493Z,3.55
2023-04-22T12:16:10.168Z,1.90
2023-04-22T12:18:48.008Z,7.40
2023-04-22T12:21:17.520Z,3.00
2023-04-22T12:23:48.938Z,4.55
2023-04-22T12:26:17.551Z,3.15
2023-04-22T12:28:45.641Z,2.72
2023-04-22T12:31:14.816Z,2.92
2023-04-22T12:33:42.141Z,2.78
2023-04-22T12:36:09.685Z,5.07
2023-04-22T12:38:37.251Z,3.35
2023-04-22T12:41:05.527Z,4.18
2023-04-22T12:43:36.468Z,3.20
2023-04-22T12:46:04.876Z,4.00
2023-04-22T12:48:32.589Z,4.70
2023-04-22T12:51:00.279Z,2.50
2023-04-22T12:53:28.210Z,5.78
2023-04-22T12:55:55.911Z,2.70
2023-04-22T12:58:22.941Z,2.88
2023-04-22T13:00:49.839Z,3.67
2023-04-22T13:03:16.988Z,3.05
2023-04-22T13:05:45.419Z,6.43
2023-04-22T13:08:12.314Z,3.65
2023-04-22T13:10:39.363Z,4.13
2023-04-22T13:15:39.142Z,3.72
2023-04-22T13:18:06.357Z,5.70
2023-04-22T13:20:33.434Z,4.97
2023-04-22T13:23:02.294Z,4.32
2023-04-22T13:25:29.323Z,3.28
2023-04-22T13:27:56.241Z,4.07
2023-04-22T13:30:23.204Z,4.70
2023-04-22T13:32:50.139Z,4.00
2023-04-22T13:35:18.592Z,4.18
2023-04-22T13:37:46.450Z,4.25
2023-04-22T13:40:13.472Z,3.00
2023-04-22T13:42:40.568Z,3.83
2023-04-22T13:45:08.375Z,5.28
2023-04-22T13:47:35.518Z,4.15
2023-04-22T13:50:02.687Z,5.18
2023-04-22T13:52:29.649Z,4.32
2023-04-22T13:54:56.579Z,3.15
2023-04-22T13:57:23.557Z,5.45
2023-04-22T13:59:50.942Z,4.28
2023-04-22T14:02:18.229Z,3.92
2023-04-22T14:04:45.361Z,4.68
2023-04-22T14:07:13.188Z,2.85
2023-04-22T14:09:40.184Z,4.95
2023-04-22T14:12:08.127Z,2.70
2023-04-22T14:14:35.116Z,4.38
2023-04-22T14:17:02.309Z,3.33
2023-04-22T14:19:30.535Z,4.03
2023-04-22T14:21:58.211Z,3.38
2023-04-22T14:24:25.599Z,5.63
2023-04-22T14:26:52.931Z,4.88
2023-04-22T14:29:20.134Z,4.45
2023-04-22T14:31:47.133Z,4.45
2023-04-22T14:34:14.009Z,4.05
2023-04-22T14:36:41.053Z,4.30
2023-04-22T14:39:07.962Z,5.68
2023-04-22T14:41:35.201Z,5.63
2023-04-22T14:44:02.183Z,6.13
2023-04-22T14:46:30.580Z,6.18
2023-04-22T14:48:57.522Z,5.32
2023-04-22T14:51:24.716Z,3.22
2023-04-22T14:53:51.718Z,5.90
2023-04-22T14:56:19.037Z,6.22
2023-04-22T14:58:46.636Z,4.38
2023-04-22T15:01:13.660Z,4.10
2023-04-22T15:03:41.075Z,6.30
2023-04-22T15:06:08.343Z,8.32
2023-04-22T15:08:35.567Z,4.85
2023-04-22T15:11:02.633Z,6.60
2023-04-22T15:13:29.542Z,6.68
2023-04-22T15:15:57.353Z,4.43
2023-04-22T15:18:25.078Z,5.07
2023-04-22T15:20:51.944Z,5.68
2023-04-22T15:23:18.849Z,6.57
2023-04-22T15:25:46.067Z,5.85
2023-04-22T15:28:12.998Z,5.82
2023-04-22T15:30:40.878Z,7.47
2023-04-22T15:33:07.928Z,5.50
2023-04-22T15:35:34.889Z,4.93
2023-04-22T15:38:03.049Z,5.65
2023-04-22T15:40:30.137Z,5.45
2023-04-22T15:42:57.080Z,6.05
2023-04-22T15:45:24.063Z,7.57
2023-04-22T15:47:52.514Z,5.15
2023-04-22T15:50:20.233Z,9.60
2023-04-22T15:52:47.131Z,6.15
2023-04-22T15:55:14.124Z,4.90
2023-04-22T15:57:41.048Z,4.70
2023-04-22T16:00:12.450Z,5.20
2023-04-22T16:02:41.592Z,6.10
2023-04-22T16:05:09.112Z,3.50
2023-04-22T16:07:36.248Z,3.03
2023-04-22T16:10:03.253Z,3.72
2023-04-22T16:12:31.983Z,7.07
2023-04-22T16:15:00.411Z,4.35
2023-04-22T16:17:27.558Z,7.20
2023-04-22T16:19:55.233Z,5.88
2023-04-22T16:22:22.173Z,4.05
2023-04-22T16:24:49.329Z,4.57
2023-04-22T16:27:18.513Z,4.60
2023-04-22T16:29:45.931Z,3.70
2023-04-22T16:32:12.979Z,24.95
2023-04-22T16:34:40.150Z,6.03
2023-04-22T16:37:08.576Z,7.13
2023-04-22T16:39:35.629Z,8.20
2023-04-22T16:42:03.178Z,4.95
2023-04-22T16:44:30.175Z,10.57
2023-04-22T16:46:57.209Z,7.57
2023-04-22T16:49:24.163Z,7.22
2023-04-22T16:51:51.165Z,8.30
2023-04-22T16:54:18.153Z,5.55
2023-04-22T16:56:45.063Z,5.75
2023-04-22T16:59:12.027Z,5.57
2023-04-22T17:01:40.910Z,5.50
2023-04-22T17:04:08.879Z,7.07
2023-04-22T17:06:37.730Z,7.53
2023-04-22T17:09:06.859Z,8.30
2023-04-22T17:11:33.820Z,6.78
2023-04-22T17:14:01.016Z,6.35
2023-04-22T17:16:28.183Z,5.57
2023-04-22T17:18:55.338Z,5.05
2023-04-22T17:21:25.391Z,8.00
2023-04-22T17:23:52.636Z,6.28
2023-04-22T17:26:19.526Z,5.25
2023-04-22T17:28:46.559Z,8.85
2023-04-22T17:31:13.640Z,6.82
2023-04-22T17:33:41.313Z,5.22
2023-04-22T17:36:08.393Z,8.57
2023-04-22T17:38:35.805Z,7.45
2023-04-22T17:41:02.795Z,11.68
2023-04-22T17:43:29.891Z,6.38
2023-04-22T17:45:57.014Z,10.80
2023-04-22T17:48:23.959Z,10.88
2023-04-22T17:50:51.080Z,9.77
2023-04-22T17:53:18.066Z,10.38
2023-04-22T17:55:45.014Z,9.38
2023-04-22T17:58:12.152Z,8.57
2023-04-22T18:00:39.750Z,8.23
2023-04-22T18:03:06.916Z,11.95
2023-04-22T18:05:34.100Z,10.52
2023-04-22T18:08:02.948Z,9.77
2023-04-22T18:10:30.667Z,14.38
2023-04-22T18:12:57.875Z,14.32
2023-04-22T18:15:24.810Z,15.32
2023-04-22T18:17:52.049Z,16.42
2023-04-22T18:20:19.938Z,15.15
2023-04-22T18:22:48.620Z,10.98
2023-04-22T18:25:16.562Z,12.23
2023-04-22T18:27:44.338Z,15.98
2023-04-22T18:30:11.666Z,13.23
2023-04-22T18:32:38.972Z,11.30
2023-04-22T18:35:06.467Z,9.32
2023-04-22T18:37:34.988Z,11.98
2023-04-22T18:40:02.835Z,13.43
2023-04-22T18:42:30.361Z,11.80
2023-04-22T18:44:57.457Z,12.18
2023-04-22T18:47:24.541Z,14.90
2023-04-22T18:49:51.498Z,20.17
2023-04-22T18:52:18.749Z,22.35
2023-04-22T18:54:45.772Z,20.45
2023-04-22T18:57:13.200Z,21.00
2023-04-22T18:59:40.149Z,22.27
2023-04-22T19:02:07.133Z,24.13
2023-04-22T19:04:34.250Z,26.00
2023-04-22T19:07:01.210Z,31.05
2023-04-22T19:09:28.199Z,38.95
2023-04-22T19:11:55.925Z,35.13
2023-04-22T19:14:22.903Z,38.92
2023-04-22T19:16:49.894Z,45.00
2023-04-22T19:19:16.821Z,46.67
2023-04-22T19:21:43.948Z,50.30
2023-04-22T19:24:13.708Z,44.70
2023-04-22T19:26:41.439Z,51.08
2023-04-22T19:29:08.817Z,46.83
2023-04-22T19:31:35.869Z,46.03
2023-04-22T19:34:03.179Z,38.85
2023-04-22T19:36:30.123Z,34.92
2023-04-22T19:38:57.091Z,34.05
2023-04-22T19:41:24.734Z,30.30
2023-04-22T19:43:51.690Z,31.73
2023-04-22T19:46:18.648Z,29.25
2023-04-22T19:48:45.941Z,29.38
2023-04-22T19:51:13.303Z,30.58
2023-04-22T19:53:41.602Z,31.20
2023-04-22T19:56:12.043Z,34.72
2023-04-22T19:58:39.714Z,27.20
2023-04-22T20:01:06.860Z,29.70
2023-04-22T20:03:34.288Z,32.50
2023-04-22T20:06:01.868Z,36.22
2023-04-22T20:08:29.809Z,37.78
2023-04-22T20:10:58.419Z,33.60
2023-04-22T20:13:26.297Z,31.92
2023-04-22T20:15:53.563Z,34.47
2023-04-22T20:18:20.709Z,36.58
2023-04-22T20:20:49.180Z,35.33
2023-04-22T20:23:20.896Z,34.92
2023-04-22T20:25:49.021Z,35.05
2023-04-22T20:28:16.069Z,35.50
2023-04-22T20:30:43.348Z,35.40
2023-04-22T20:33:12.756Z,31.50
2023-04-22T20:35:41.570Z,35.58
2023-04-22T20:38:12.532Z,31.08
2023-04-22T20:40:40.455Z,31.00
2023-04-22T20:43:07.864Z,29.33
2023-04-22T20:45:35.257Z,28.65
2023-04-22T20:48:02.549Z,28.88
2023-04-22T20:50:33.554Z,29.17
2023-04-22T20:53:01.277Z,26.08
2023-04-22T20:55:28.268Z,29.90
2023-04-22T20:57:55.197Z,25.90
2023-04-22T21:00:22.490Z,26.92
2023-04-22T21:02:50.436Z,27.15
2023-04-22T21:05:17.996Z,33.40
2023-04-22T21:07:52.134Z,27.98
2023-04-22T21:10:22.648Z,31.50
2023-04-22T21:12:50.140Z,31.42
2023-04-22T21:15:17.526Z,25.63
2023-04-22T21:17:54.367Z,23.33
2023-04-22T21:20:24.426Z,24.15
2023-04-22T21:22:53.333Z,25.02
2023-04-22T21:25:22.252Z,24.13
2023-04-22T21:27:49.672Z,30.73
2023-04-22T21:30:17.179Z,30.42
2023-04-22T21:32:44.214Z,30.73
2023-04-22T21:35:11.416Z,39.28
2023-04-22T21:37:38.416Z,38.97
2023-04-22T21:40:09.664Z,40.55
2023-04-22T21:42:36.563Z,36.58
2023-04-22T21:45:04.506Z,29.40
2023-04-22T21:47:31.576Z,29.33
2023-04-22T21:49:58.485Z,28.65
2023-04-22T21:52:25.593Z,21.63
2023-04-22T21:54:52.485Z,18.75
2023-04-22T21:57:19.484Z,23.05
2023-04-22T21:59:46.347Z,20.15
2023-04-22T22:02:13.338Z,17.20
2023-04-22T22:04:40.669Z,12.65
2023-04-22T22:07:07.822Z,13.70
2023-04-22T22:09:34.908Z,17.60
2023-04-22T22:12:01.995Z,17.30
2023-04-22T22:14:28.942Z,16.67
2023-04-22T22:16:55.960Z,16.90
2023-04-22T22:19:23.927Z,14.02
2023-04-22T22:21:51.359Z,15.43
2023-04-22T22:24:18.338Z,11.98
2023-04-22T22:26:45.317Z,16.30
2023-04-22T22:29:15.653Z,13.98
2023-04-22T22:31:44.205Z,11.95
2023-04-22T22:34:11.462Z,11.65
2023-04-22T22:36:38.426Z,10.40
2023-04-22T22:39:05.451Z,9.05
2023-04-22T22:41:32.438Z,11.20
2023-04-22T22:43:59.415Z,11.52
2023-04-22T22:46:26.487Z,9.98
2023-04-22T22:48:53.576Z,9.73
2023-04-22T22:51:21.225Z,9.23
2023-04-22T22:53:48.153Z,8.85
2023-04-22T22:56:15.578Z,11.65
2023-04-22T22:58:42.543Z,13.48
2023-04-22T23:01:09.641Z,11.32
2023-04-22T23:03:37.230Z,14.18
2023-04-22T23:06:04.613Z,15.07
2023-04-22T23:08:31.555Z,14.40
2023-04-22T23:10:58.401Z,13.77
2023-04-22T23:13:25.294Z,15.77
2023-04-22T23:15:52.471Z,14.65
2023-04-22T23:18:19.537Z,15.73
2023-04-22T23:20:50.014Z,12.27
2023-04-22T23:23:18.185Z,16.75
2023-04-22T23:25:46.966Z,18.75
2023-04-22T23:28:14.194Z,19.25
2023-04-22T23:30:41.779Z,13.68
2023-04-22T23:33:12.526Z,15.25
2023-04-22T23:35:41.666Z,16.58
2023-04-22T23:38:11.117Z,17.30
2023-04-22T23:40:38.053Z,20.00
2023-04-22T23:43:04.985Z,25.15
2023-04-22T23:45:32.036Z,19.30
2023-04-22T23:47:58.978Z,21.33
2023-04-22T23:50:25.913Z,26.02
2023-04-22T23:52:52.865Z,24.30
2023-04-22T23:55:20.042Z,16.38
2023-04-22T23:57:47.223Z,16.20
